createdAt,value
2023-04-08T00:04:46.725Z,5.62
2023-04-08T00:09:48.484Z,5.61
2023-04-08T00:14:50.885Z,5.58
2023-04-08T00:19:52.967Z,5.60
2023-04-08T00:24:54.771Z,5.58
2023-04-08T00:29:57.409Z,5.56
2023-04-08T00:34:59.156Z,5.56
2023-04-08T00:40:01.049Z,5.53
2023-04-08T00:45:02.907Z,5.54
2023-04-08T00:50:08.273Z,5.60
2023-04-08T00:55:10.167Z,5.58
2023-04-08T01:00:13.780Z,5.57
2023-04-08T01:05:43.922Z,5.57
2023-04-08T01:10:53.823Z,5.58
2023-04-08T01:15:56.167Z,5.57
2023-04-08T01:21:00.180Z,5.58
2023-04-08T01:26:01.994Z,5.62
2023-04-08T01:31:04.738Z,5.63
2023-04-08T01:36:08.940Z,5.63
2023-04-08T01:41:12.103Z,5.64
2023-04-08T01:46:15.536Z,5.67
2023-04-08T01:51:18.716Z,5.69
2023-04-08T01:56:23.199Z,5.72
2023-04-08T02:01:29.634Z,5.67
2023-04-08T02:06:33.337Z,5.62
2023-04-08T02:11:35.488Z,5.62
2023-04-08T02:17:02.463Z,5.63
2023-04-08T02:22:38.059Z,5.68
2023-04-08T02:27:43.901Z,5.63
2023-04-08T02:32:48.724Z,5.62
2023-04-08T02:37:50.706Z,5.57
2023-04-08T02:42:54.225Z,5.58
2023-04-08T02:47:56.111Z,5.58
2023-04-08T02:52:57.969Z,5.57
2023-04-08T02:57:59.740Z,5.58
2023-04-08T03:03:01.822Z,5.61
2023-04-08T03:08:03.825Z,5.61
2023-04-08T03:13:05.774Z,5.61
2023-04-08T03:18:07.654Z,5.61
2023-04-08T03:23:09.526Z,5.58
2023-04-08T03:28:11.364Z,5.56
2023-04-08T03:33:13.333Z,5.56
2023-04-08T03:38:15.671Z,5.56
2023-04-08T03:43:19.547Z,5.60
2023-04-08T03:48:21.408Z,5.57
2023-04-08T03:53:23.187Z,5.56
2023-04-08T03:58:25.004Z,5.55
2023-04-08T04:03:27.348Z,5.57
2023-04-08T04:08:29.289Z,5.54
2023-04-08T04:13:31.079Z,5.54
2023-04-08T04:18:32.918Z,5.52
2023-04-08T04:23:34.890Z,5.56
2023-04-08T04:28:37.173Z,5.58
2023-04-08T04:33:38.896Z,5.61
2023-04-08T04:38:40.785Z,5.62
2023-04-08T04:43:42.504Z,5.64
2023-04-08T04:48:44.298Z,5.64
2023-04-08T04:53:46.064Z,5.63
2023-04-08T04:58:48.008Z,5.62
2023-04-08T05:03:49.872Z,5.64
2023-04-08T05:08:52.019Z,5.65
2023-04-08T05:13:53.928Z,5.66
2023-04-08T05:18:55.704Z,5.66
2023-04-08T05:23:57.460Z,5.67
2023-04-08T05:28:59.347Z,5.72
2023-04-08T05:34:01.368Z,5.75
2023-04-08T05:39:03.524Z,5.83
2023-04-08T05:44:05.399Z,5.84
2023-04-08T05:49:07.244Z,5.87
2023-04-08T05:54:09.368Z,5.87
2023-04-08T05:59:11.150Z,5.88
2023-04-08T06:04:12.990Z,5.88
2023-04-08T06:09:14.801Z,5.93
2023-04-08T06:14:16.546Z,5.97
2023-04-08T06:19:18.305Z,6.00
2023-04-08T06:24:20.040Z,6.02
2023-04-08T06:29:23.589Z,6.07
2023-04-08T06:34:25.384Z,6.18
2023-04-08T06:39:27.132Z,6.30
2023-04-08T06:44:29.057Z,6.39
2023-04-08T06:49:35.827Z,6.49
2023-04-08T06:54:37.688Z,6.50
2023-04-08T06:59:39.552Z,6.52
2023-04-08T07:04:41.312Z,6.55
2023-04-08T07:09:45.833Z,6.59
2023-04-08T07:14:47.567Z,6.64
2023-04-08T07:19:49.584Z,6.80
2023-04-08T07:24:51.968Z,6.88
2023-04-08T07:29:54.648Z,6.93
2023-04-08T07:34:56.393Z,7.03
2023-04-08T07:39:58.120Z,7.16
2023-04-08T07:44:59.891Z,7.31
2023-04-08T07:50:01.833Z,7.52
2023-04-08T07:55:05.745Z,7.57
2023-04-08T08:00:08.719Z,7.57
2023-04-08T08:05:10.464Z,7.58
2023-04-08T08:10:12.208Z,7.61
2023-04-08T08:15:14.808Z,7.69
2023-04-08T08:20:16.775Z,7.77
2023-04-08T08:25:19.721Z,7.82
2023-04-08T08:30:22.216Z,7.90
2023-04-08T08:35:24.006Z,7.94
2023-04-08T08:40:25.787Z,8.12
2023-04-08T08:45:27.658Z,8.23
2023-04-08T08:50:29.455Z,8.78
2023-04-08T08:56:00.265Z,9.00
2023-04-08T09:00:57.711Z,9.03
2023-04-08T09:06:01.840Z,8.90
2023-04-08T09:11:23.405Z,9.62
2023-04-08T09:16:25.503Z,9.84
2023-04-08T09:21:27.464Z,9.79
2023-04-08T09:26:29.272Z,9.82
2023-04-08T09:31:42.783Z,9.59
2023-04-08T09:36:44.666Z,9.74
2023-04-08T09:41:52.308Z,9.76
2023-04-08T09:47:12.736Z,9.66
2023-04-08T09:52:28.775Z,9.57
2023-04-08T09:57:55.674Z,9.42
2023-04-08T10:03:35.241Z,9.36
2023-04-08T10:08:37.288Z,9.28
2023-04-08T10:13:39.168Z,9.32
2023-04-08T10:18:41.010Z,9.38
2023-04-08T10:24:06.131Z,9.36
2023-04-08T10:29:40.079Z,9.38
2023-04-08T10:34:53.597Z,9.72
2023-04-08T10:39:55.476Z,10.21
2023-04-08T10:45:01.752Z,10.97
2023-04-08T10:50:18.644Z,11.67
2023-04-08T10:55:28.674Z,12.27
2023-04-08T11:00:40.937Z,12.21
2023-04-08T11:05:43.625Z,11.76
2023-04-08T11:10:45.564Z,11.52
2023-04-08T11:15:47.736Z,11.28
2023-04-08T11:20:53.818Z,11.23
2023-04-08T11:25:56.648Z,11.57
2023-04-08T11:30:59.751Z,11.86
2023-04-08T11:36:06.302Z,11.74
2023-04-08T11:41:08.308Z,11.59
2023-04-08T11:46:12.608Z,11.57
2023-04-08T11:51:14.870Z,11.58
2023-04-08T11:56:23.769Z,11.65
2023-04-08T12:01:26.979Z,12.03
2023-04-08T12:06:29.758Z,12.16
2023-04-08T12:11:31.515Z,12.05
2023-04-08T12:16:33.372Z,11.94
2023-04-08T12:21:36.015Z,11.76
2023-04-08T12:26:37.824Z,11.70
2023-04-08T12:31:39.665Z,11.86
2023-04-08T12:36:42.030Z,12.53
2023-04-08T12:41:43.820Z,13.12
2023-04-08T12:46:47.111Z,13.05
2023-04-08T12:51:49.195Z,12.65
2023-04-08T12:56:50.914Z,12.43
2023-04-08T13:01:52.751Z,12.49
2023-04-08T13:06:55.519Z,12.63
2023-04-08T13:11:58.097Z,12.59
2023-04-08T13:16:59.918Z,12.42
2023-04-08T13:22:01.825Z,12.29
2023-04-08T13:27:03.823Z,12.17
2023-04-08T13:32:05.876Z,12.19
2023-04-08T13:37:07.757Z,12.53
2023-04-08T13:42:09.538Z,12.92
2023-04-08T13:47:11.649Z,13.09
2023-04-08T13:52:13.403Z,13.07
2023-04-08T13:57:15.310Z,13.18
2023-04-08T14:02:17.516Z,13.30
2023-04-08T14:07:19.822Z,13.28
2023-04-08T14:12:21.596Z,13.27
2023-04-08T14:17:23.409Z,13.37
2023-04-08T14:22:25.357Z,13.59
2023-04-08T14:27:27.880Z,13.51
2023-04-08T14:32:29.764Z,13.27
2023-04-08T14:37:31.589Z,13.07
2023-04-08T14:42:33.349Z,13.04
2023-04-08T14:47:35.116Z,12.99
2023-04-08T14:52:36.931Z,12.92
2023-04-08T14:57:38.677Z,12.93
2023-04-08T15:02:40.503Z,12.88
2023-04-08T15:07:42.988Z,12.86
2023-04-08T15:12:44.755Z,12.96
2023-04-08T15:17:46.741Z,13.04
2023-04-08T15:22:48.595Z,13.06
2023-04-08T15:27:50.370Z,12.96
2023-04-08T15:32:52.669Z,12.91
2023-04-08T15:37:54.876Z,12.89
2023-04-08T15:42:56.693Z,12.82
2023-04-08T15:47:59.551Z,12.74
2023-04-08T15:53:01.406Z,12.63
2023-04-08T15:58:03.165Z,12.65
2023-04-08T16:03:08.213Z,12.65
2023-04-08T16:08:10.202Z,12.68
2023-04-08T16:13:12.552Z,12.81
2023-04-08T16:18:14.387Z,12.84
2023-04-08T16:23:17.787Z,12.78
2023-04-08T16:28:19.683Z,12.74
2023-04-08T16:33:26.281Z,12.72
2023-04-08T16:38:28.036Z,12.72
2023-04-08T16:43:29.894Z,12.67
2023-04-08T16:48:31.654Z,12.62
2023-04-08T16:53:33.487Z,12.56
2023-04-08T16:58:35.316Z,12.42
2023-04-08T17:03:37.879Z,12.36
2023-04-08T17:08:43.858Z,12.30
2023-04-08T17:13:46.165Z,12.17
2023-04-08T17:18:48.109Z,12.04
2023-04-08T17:23:52.921Z,11.53
2023-04-08T17:28:54.915Z,11.10
2023-04-08T17:33:56.713Z,10.57
2023-04-08T17:38:58.479Z,10.32
2023-04-08T17:44:00.338Z,10.16
2023-04-08T17:49:02.134Z,9.99
2023-04-08T17:54:05.019Z,9.84
2023-04-08T17:59:07.264Z,9.45
2023-04-08T18:04:10.328Z,9.15
2023-04-08T18:09:12.258Z,9.19
2023-04-08T18:14:14.017Z,9.19
2023-04-08T18:19:15.829Z,8.93
2023-04-08T18:24:18.992Z,8.97
2023-04-08T18:29:20.786Z,8.96
2023-04-08T18:34:24.478Z,8.91
2023-04-08T18:39:26.288Z,8.86
2023-04-08T18:44:28.511Z,9.01
2023-04-08T18:49:33.305Z,9.01
2023-04-08T18:54:35.774Z,9.01
2023-04-08T18:59:37.679Z,9.08
2023-04-08T19:04:39.489Z,8.97
2023-04-08T19:09:41.450Z,8.98
2023-04-08T19:14:43.244Z,8.92
2023-04-08T19:19:45.130Z,8.72
2023-04-08T19:24:47.056Z,8.68
2023-04-08T19:29:49.328Z,8.52
2023-04-08T19:34:51.126Z,8.45
2023-04-08T19:39:53.587Z,8.60
2023-04-08T19:44:55.487Z,8.67
2023-04-08T19:49:58.158Z,8.73
2023-04-08T19:55:00.145Z,8.76
2023-04-08T20:00:02.420Z,8.79
2023-04-08T20:05:04.633Z,8.81
2023-04-08T20:10:08.307Z,8.62
2023-04-08T20:15:23.027Z,8.54
2023-04-08T20:20:28.899Z,8.46
2023-04-08T20:25:32.250Z,8.48
2023-04-08T20:30:34.114Z,8.50
2023-04-08T20:35:37.290Z,8.51
2023-04-08T20:40:44.084Z,8.53
2023-04-08T20:45:45.865Z,8.52
2023-04-08T20:50:51.019Z,8.53
2023-04-08T20:55:53.017Z,8.42
2023-04-08T21:00:54.791Z,8.41
2023-04-08T21:05:58.411Z,8.42
2023-04-08T21:11:00.674Z,8.39
2023-04-08T21:16:02.498Z,8.36
2023-04-08T21:21:04.594Z,8.31
2023-04-08T21:26:13.553Z,8.24
2023-04-08T21:31:15.732Z,8.14
2023-04-08T21:36:17.589Z,8.00
2023-04-08T21:41:19.552Z,7.84
2023-04-08T21:46:21.560Z,7.71
2023-04-08T21:51:23.427Z,7.67
2023-04-08T21:56:25.520Z,7.64
2023-04-08T22:01:27.337Z,7.62
2023-04-08T22:06:32.641Z,7.54
2023-04-08T22:11:34.806Z,7.48
2023-04-08T22:16:36.725Z,7.42
2023-04-08T22:21:38.748Z,7.41
2023-04-08T22:26:42.638Z,7.37
2023-04-08T22:31:47.504Z,7.35
2023-04-08T22:36:52.863Z,7.31
2023-04-08T22:42:03.843Z,7.32
2023-04-08T22:47:09.598Z,7.38
2023-04-08T22:52:13.570Z,7.36
2023-04-08T22:57:22.180Z,7.38
2023-04-08T23:02:28.005Z,7.40
2023-04-08T23:07:30.423Z,7.40
2023-04-08T23:12:32.323Z,7.41
2023-04-08T23:17:34.075Z,7.40
2023-04-08T23:22:35.883Z,7.33
2023-04-08T23:27:37.687Z,7.26
2023-04-08T23:32:39.495Z,7.26
2023-04-08T23:37:41.269Z,7.26
2023-04-08T23:42:42.990Z,7.23
2023-04-08T23:47:44.740Z,7.24
2023-04-08T23:52:46.501Z,7.20
2023-04-08T23:57:50.557Z,7.12
